4°C Temp
2°C Dewpoint
% Humidity
Temperature
19 KM/H
12 MPH
10 KTS
260°
Due West

Wind Speed
Clear
Conditions
Pressure 1009.92 (hPa) - 29.82 (in)
Visibility 6.2 (mi) - 10.0 (km)

Current Conditions
EHGG
Location 50(km)
Metar :EHGG 180625Z AUTO 26010KT 230V290 9999 NSC 04/02 Q1010 NOSIG
Mon 18th March 07:25 am

Airport
  Metar Aviation API Data Provided by https://www.checkwx.com/ PHP scripts by weather34.com ©2019